Wednesday, October 17, 2018, 3:28 AM EDT
Back to Local

KJYO, Leesburg / Godfrey

Location: Leesburg, VA, United States Lat: 39.083
Local Time: 3:28 AM EDT ( 7:28 GMT) Lon: -77.567
Time Zone: US/Eastern Elev: 390 ft

Show me the last for .
Show Coded

Time T Td Feel RH Dir Speed Gust Alt SLP Vis Weather Sky Remarks
2018-10-17 03:15 48 48 - 100 - Calm - 30.06 - 10 CLR None
2018-10-17 02:55 50 50 - 100 - Calm - 30.06 - 10 CLR None
2018-10-17 02:35 50 50 - 100 - Calm - 30.07 - 10 CLR None
2018-10-17 02:15 50 50 - 100 - Calm - 30.08 - 10 CLR None
2018-10-17 01:55 50 50 - 100 - Calm - 30.09 - 10 CLR None
2018-10-17 01:35 50 50 - 100 - Calm - 30.09 - 10 CLR None
2018-10-17 01:15 50 50 49 100 260° 3 - 30.09 - 10 SCT040 None
2018-10-17 00:55 52 52 - 100 - Calm - 30.10 - 10 BKN042 None
2018-10-16 23:55 52 52 - 100 220° 3 - 30.11 - 10 CLR None
2018-10-16 23:35 54 52 - 93 220° 3 - 30.11 - 10 SCT042 None
2018-10-16 23:15 54 52 - 93 220° 3 - 30.11 - 10 SCT042 None
2018-10-16 22:55 54 52 - 93 200° 3 - 30.11 - 10 BKN042 None
2018-10-16 22:35 54 52 - 93 230° 6 - 30.11 - 10 OVC042 None
2018-10-16 22:15 54 52 - 93 230° 6 - 30.12 - 10 OVC046 None
2018-10-16 21:55 54 52 - 93 210° 6 - 30.12 - 10 BKN048 BKN050 None
2018-10-16 21:35 54 50 - 87 210° 7 - 30.12 - 10 BKN046 BKN055 None
2018-10-16 21:15 54 50 - 87 200° 5 - 30.13 - 10 OVC046 None
2018-10-16 20:55 54 50 - 87 180° 3 - 30.12 - 10 OVC046 None
2018-10-16 20:35 54 50 - 87 - Calm - 30.12 - 10 BKN046 None
2018-10-16 20:15 54 50 - 87 - Calm - 30.12 - 10 CLR None
2018-10-16 19:55 54 50 - 87 200° 5 - 30.12 - 10 CLR None
2018-10-16 19:35 54 50 - 87 210° 3 - 30.13 - 10 CLR None
2018-10-16 19:15 55 50 - 82 200° 3 - 30.13 - 10 CLR None
2018-10-16 18:55 55 48 - 76 190° 3 - 30.12 - 10 CLR None
2018-10-16 18:35 55 46 - 71 - Calm - 30.13 - 10 CLR None
2018-10-16 18:15 57 46 - 67 190° 3 - 30.12 - 10 CLR None
2018-10-16 17:55 59 46 - 62 200° 3 - 30.11 - 10 CLR None
2018-10-16 17:35 59 46 - 62 200° 3 - 30.11 - 10 CLR None
2018-10-16 17:15 59 45 - 58 220° 3 - 30.13 - 10 CLR None
2018-10-16 16:55 59 45 - 58 270° 5 - 30.13 - 10 CLR None
2018-10-16 16:35 59 45 - 58 270° 5 - 30.13 - 10 CLR None
2018-10-16 16:15 59 43 - 54 270° 3 - 30.14 - 10 CLR None
2018-10-16 15:55 61 43 - 51 340° 5 - 30.14 - 10 CLR 1-hr Precip Total: 0.02"
2018-10-16 15:35 59 43 - 54 320° 6 - 30.14 - 7 CLR None
2018-10-16 15:15 59 43 - 54 350° 6 - 30.15 - 10 CLR None
2018-10-16 14:55 59 43 - 54 340° 7 - 30.15 - 10 CLR None
2018-10-16 14:35 59 43 - 54 320° 9 - 30.15 - 10 CLR None
2018-10-16 14:15 59 43 - 54 330° 6 - 30.16 - 10 CLR None
2018-10-16 13:55 59 43 - 54 10° 5 - 30.19 - 10 CLR None
2018-10-16 13:35 59 43 - 54 340° 5 - 30.20 - 10 CLR None
2018-10-16 13:15 57 43 - 58 10° 5 - 30.20 - 10 CLR None
2018-10-16 12:55 55 43 - 62 340° 9 - 30.21 - 10 CLR None
2018-10-16 12:35 55 43 - 62 340° 8 - 30.22 - 10 CLR None
2018-10-16 12:15 55 43 - 62 340° 6 - 30.24 - 10 CLR None
2018-10-16 11:55 55 43 - 62 330° 10 - 30.25 - 10 CLR None
2018-10-16 11:35 55 43 - 62 350° 7 - 30.25 - 10 CLR None
2018-10-16 11:15 54 43 - 66 10° 7 - 30.25 - 10 CLR None
2018-10-16 10:55 54 41 - 62 340° 6 - 30.25 - 10 CLR None
2018-10-16 10:35 52 41 - 66 350° 10 - 30.25 - 10 CLR None
2018-10-16 10:15 52 41 - 66 360° 9 17 30.25 - 10 CLR None
2018-10-16 09:55 52 41 - 66 350° 10 18 30.25 - 10 CLR None
2018-10-16 09:35 52 41 - 66 360° 8 - 30.24 - 10 CLR None
2018-10-16 09:15 52 41 - 66 360° 8 - 30.24 - 10 CLR None
2018-10-16 08:55 52 41 - 66 20° 7 - 30.25 - 10 CLR None
2018-10-16 08:35 52 43 - 71 10° 8 - 30.24 - 10 CLR None
2018-10-16 08:15 52 41 - 66 350° 10 - 30.23 - 10 CLR None
2018-10-16 07:55 52 43 - 71 50° 5 - 30.22 - 10 CLR None
2018-10-16 07:35 52 43 - 71 360° 9 18 30.21 - 10 CLR None
2018-10-16 07:15 52 43 - 71 360° 10 17 30.21 - 10 CLR None
2018-10-16 06:55 52 43 - 71 350° 13 17 30.20 - 10 CLR None
2018-10-16 06:35 54 43 - 66 340° 13 - 30.19 - 10 CLR None
2018-10-16 06:15 54 43 - 66 360° 9 - 30.20 - 10 CLR None
2018-10-16 05:55 54 43 - 66 350° 7 - 30.18 - 10 CLR None
2018-10-16 05:35 54 43 - 66 360° 10 16 30.18 - 10 CLR None
2018-10-16 05:15 54 43 - 66 10° 7 - 30.17 - 10 CLR None
2018-10-16 04:55 54 45 - 71 360° 8 - 30.16 - 10 CLR None
2018-10-16 04:35 55 45 - 66 350° 14 20 30.15 - 10 CLR None
2018-10-16 04:15 55 45 - 66 360° 9 - 30.15 - 10 CLR None
2018-10-16 03:55 57 46 - 67 20° 6 - 30.15 - 10 CLR None
2018-10-16 03:35 57 45 - 62 10° 3 - 30.15 - 10 CLR None

Support USWX by starting your Amazon purchase here.